Airfield :
LOGIN :

Register | Disclaimer

   EN    FR    IT 

 










Legend :    VFR   Marginal VFR   IFR   Intensive IFR   Very Intensive IFR
Visi :
Ceiling :
>= 8 km
>= 3000ft
5 to 8 km
1000 to 3000 ft
1500m to 5 km
500 to 1000 ft
800 to 1500m
200 to 500 ft
< 800m
< 200 ft
Symbols :   Thunderstorms  Fog  Heavy snow  Heavy precipitations  Wind > 20 kt
SIGMETs :     Misc.  Thunderstorms  Icing  Turbulence  Mountain Waves  Volcanic Ashes






- Airport Elevation : 70 ft
- IATA code : WBG


ETNS - Schleswig

CURRENT METAR :
  • 201420Z 30002KT 2800 BR OVC002 04/04 Q1018 AMB AMB

EXPIRED METARs :
  • 201320Z 35001KT 3500 BR OVC002 04/03 Q1018 AMB AMB BECMG YLO
  • 201220Z 04003KT 3000 -RA BR OVC002 03/03 Q1018 AMB AMB

TAF TAF ETNS
Valid from the 20 at 12:00 until the 20 at 21:00 UTC


201100Z 2012/2021 VRB03KT 0300 FG VV001
BECMG 2012/2013 05005KT 1500 BR BKN002
BECMG 2013/2015 05005KT 3000 BR BKN003 BKN020 BY ETGL



MET'MAP, your aeronautical weather chart ! - Copyright ORBIFLY December 2007 - Disclaimer

ORBIFLY MET'MAP TEAM :

Programming & Development : Alexandra Zaïnal
Concept & Development : Baudouin d'Aumeries
Co-Development & Prog : Marc-Olivier Méhu
Technical & hardware support : Manuel Goepfert

Contact : metmap@orbifly.com




SOURCES & CREDITS :

   NOAA